createdAt,value
2018-06-13T00:00:03.303Z,99.99
2018-06-13T00:00:07.394Z,99.99
2018-06-13T00:00:11.701Z,99.99
2018-06-13T00:00:15.898Z,99.99
2018-06-13T00:00:20.085Z,99.99
2018-06-13T00:00:24.275Z,99.99
2018-06-13T00:00:28.355Z,99.99
2018-06-13T00:00:32.656Z,99.99
2018-06-13T00:00:36.862Z,99.99
2018-06-13T00:00:40.946Z,99.99
2018-06-13T00:00:45.257Z,99.99
2018-06-13T00:00:49.351Z,99.99
2018-06-13T00:00:53.438Z,99.99
2018-06-13T00:00:57.738Z,99.99
2018-06-13T00:01:01.867Z,99.99
2018-06-13T00:01:05.961Z,99.99
2018-06-13T00:01:10.044Z,99.99
2018-06-13T00:01:14.130Z,99.99
2018-06-13T00:01:18.213Z,99.99
2018-06-13T00:01:22.412Z,99.99
2018-06-13T00:01:26.599Z,99.99
2018-06-13T00:01:30.686Z,99.99
2018-06-13T00:01:34.987Z,99.99
2018-06-13T00:01:39.184Z,99.99
2018-06-13T00:01:43.377Z,99.99
2018-06-13T00:01:47.691Z,99.99
2018-06-13T00:01:51.770Z,99.99
2018-06-13T00:01:56.072Z,99.99
2018-06-13T00:02:00.273Z,99.99
2018-06-13T00:02:04.468Z,99.99
2018-06-13T00:02:08.447Z,99.99
2018-06-13T00:02:12.758Z,99.99
2018-06-13T00:02:16.841Z,99.99
2018-06-13T00:02:20.932Z,99.99
2018-06-13T00:02:24.807Z,99.99
2018-06-13T00:02:29.100Z,99.99
2018-06-13T00:02:33.181Z,99.99
2018-06-13T00:02:37.260Z,99.99
2018-06-13T00:02:41.561Z,99.99
2018-06-13T00:02:45.853Z,99.99
2018-06-13T00:02:49.930Z,99.99
2018-06-13T00:02:53.805Z,99.99
2018-06-13T00:02:57.891Z,99.99
2018-06-13T00:03:01.982Z,99.99
2018-06-13T00:03:06.277Z,99.99
2018-06-13T00:03:10.578Z,99.99
2018-06-13T00:03:14.768Z,99.99
2018-06-13T00:03:19.068Z,99.99
2018-06-13T00:03:23.268Z,99.99
2018-06-13T00:03:27.369Z,99.99
2018-06-13T00:03:31.575Z,99.99
2018-06-13T00:03:35.670Z,99.99
2018-06-13T00:03:39.869Z,99.99
2018-06-13T00:03:44.084Z,99.99
2018-06-13T00:03:48.291Z,99.99
2018-06-13T00:03:52.498Z,99.99
2018-06-13T00:03:56.697Z,99.99
2018-06-13T00:04:01.010Z,99.99
2018-06-13T00:04:05.116Z,99.99
2018-06-13T00:04:09.430Z,99.99
2018-06-13T00:04:13.645Z,99.99
2018-06-13T00:04:17.848Z,99.99
2018-06-13T00:04:22.051Z,99.99
2018-06-13T00:04:26.255Z,99.99
2018-06-13T00:04:30.459Z,99.99
2018-06-13T00:04:34.667Z,99.99
2018-06-13T00:04:38.656Z,99.99
2018-06-13T00:04:42.962Z,99.99
2018-06-13T00:04:47.269Z,99.99
2018-06-13T00:04:51.574Z,99.99
2018-06-13T00:04:55.895Z,99.99
2018-06-13T00:05:00.221Z,99.99
2018-06-13T00:05:04.324Z,99.99
2018-06-13T00:05:08.340Z,99.99
2018-06-13T00:05:12.648Z,99.99
2018-06-13T00:05:16.955Z,99.99
2018-06-13T00:05:21.157Z,99.99
2018-06-13T00:05:25.360Z,99.99
2018-06-13T00:05:29.464Z,99.99
2018-06-13T00:05:33.776Z,99.99
2018-06-13T00:05:37.979Z,99.99
2018-06-13T00:05:42.289Z,99.99
2018-06-13T00:05:46.614Z,99.99
2018-06-13T00:05:50.708Z,99.99
2018-06-13T00:05:55.021Z,99.99
2018-06-13T00:05:59.329Z,99.99
2018-06-13T00:06:03.546Z,99.99
2018-06-13T00:06:07.539Z,99.99
2018-06-13T00:06:11.635Z,99.99
2018-06-13T00:06:15.944Z,99.99
2018-06-13T00:06:19.938Z,99.99
2018-06-13T00:06:24.153Z,99.99
2018-06-13T00:06:28.356Z,99.99
2018-06-13T00:06:32.561Z,99.99
2018-06-13T00:06:36.869Z,99.99
2018-06-13T00:06:41.089Z,99.99
2018-06-13T00:06:45.409Z,99.99
2018-06-13T00:06:49.606Z,99.99
2018-06-13T00:06:53.805Z,99.99
2018-06-13T00:06:57.911Z,99.99
2018-06-13T00:07:02.222Z,99.99
2018-06-13T00:07:06.219Z,99.99
2018-06-13T00:07:10.526Z,99.99
2018-06-13T00:07:14.743Z,99.99
2018-06-13T00:07:19.048Z,99.99
2018-06-13T00:07:23.351Z,99.99
2018-06-13T00:07:27.671Z,99.99
2018-06-13T00:07:31.791Z,99.99
2018-06-13T00:07:36.128Z,99.99
2018-06-13T00:07:40.226Z,99.99
2018-06-13T00:07:44.430Z,99.99
2018-06-13T00:07:48.743Z,99.99
2018-06-13T00:07:53.043Z,99.99
2018-06-13T00:07:57.241Z,99.99
2018-06-13T00:08:01.443Z,99.99
2018-06-13T00:08:05.428Z,99.99
2018-06-13T00:08:09.309Z,99.99
2018-06-13T00:08:13.516Z,99.99
2018-06-13T00:08:17.718Z,99.99
2018-06-13T00:08:21.713Z,99.99
2018-06-13T00:08:25.911Z,99.99
2018-06-13T00:08:30.225Z,99.99
2018-06-13T00:08:34.443Z,99.99
2018-06-13T00:08:38.431Z,99.99
2018-06-13T00:08:42.632Z,99.99
2018-06-13T00:08:46.839Z,99.99
2018-06-13T00:08:51.044Z,99.99
2018-06-13T00:08:55.245Z,99.99
2018-06-13T00:08:59.578Z,99.99
2018-06-13T00:09:03.676Z,99.99
2018-06-13T00:09:07.770Z,99.99
2018-06-13T00:09:11.973Z,99.99
2018-06-13T00:09:16.282Z,99.99
2018-06-13T00:09:20.478Z,99.99
2018-06-13T00:09:24.678Z,99.99
2018-06-13T00:09:28.881Z,99.99
2018-06-13T00:09:33.188Z,99.99
2018-06-13T00:09:37.396Z,99.99
2018-06-13T00:09:41.593Z,99.99
2018-06-13T00:09:45.904Z,99.99
2018-06-13T00:09:50.224Z,99.99
2018-06-13T00:09:54.319Z,99.99
2018-06-13T00:09:58.526Z,99.99
2018-06-13T00:10:02.731Z,99.99
2018-06-13T00:10:06.721Z,99.99
2018-06-13T00:10:10.918Z,99.99
2018-06-13T00:10:15.020Z,99.99
2018-06-13T00:10:19.225Z,99.99
2018-06-13T00:10:23.428Z,99.99
2018-06-13T00:10:27.675Z,99.99
2018-06-13T00:10:31.776Z,99.99
2018-06-13T00:10:36.045Z,99.99
2018-06-13T00:10:40.300Z,99.99
2018-06-13T00:10:44.445Z,99.99
2018-06-13T00:10:48.548Z,99.99
2018-06-13T00:10:52.937Z,99.99
2018-06-13T00:10:57.081Z,99.99
2018-06-13T00:11:01.275Z,99.99
2018-06-13T00:11:05.468Z,99.99
2018-06-13T00:11:09.783Z,99.99
2018-06-13T00:11:13.877Z,99.99
2018-06-13T00:11:17.973Z,99.99
2018-06-13T00:11:22.177Z,99.99
2018-06-13T00:11:26.278Z,99.99
2018-06-13T00:11:30.272Z,99.99
2018-06-13T00:11:34.477Z,99.99
2018-06-13T00:11:38.685Z,99.99
2018-06-13T00:11:42.892Z,99.99
2018-06-13T00:11:47.111Z,99.99
2018-06-13T00:11:51.101Z,99.99
2018-06-13T00:11:55.412Z,99.99
2018-06-13T00:11:59.513Z,99.99
2018-06-13T00:12:03.595Z,99.99
2018-06-13T00:12:07.589Z,99.99
2018-06-13T00:12:11.896Z,99.99
2018-06-13T00:12:16.111Z,99.99
2018-06-13T00:12:20.211Z,99.99
2018-06-13T00:12:24.416Z,99.99
2018-06-13T00:12:28.740Z,99.99
2018-06-13T00:12:33.049Z,99.99
2018-06-13T00:12:37.250Z,99.99
2018-06-13T00:12:41.556Z,99.99
2018-06-13T00:12:45.870Z,99.99
2018-06-13T00:12:49.867Z,99.99
2018-06-13T00:12:54.183Z,99.99
2018-06-13T00:12:58.679Z,99.99
2018-06-13T00:13:02.828Z,99.99
2018-06-13T00:13:06.920Z,99.99
2018-06-13T00:13:11.027Z,99.99
2018-06-13T00:13:15.575Z,99.99
2018-06-13T00:13:19.890Z,99.99
2018-06-13T00:13:23.988Z,99.99
2018-06-13T00:13:28.191Z,99.99
2018-06-13T00:13:32.504Z,99.99
2018-06-13T00:13:36.810Z,99.99
2018-06-13T00:13:41.123Z,99.99
2018-06-13T00:13:45.433Z,99.99
2018-06-13T00:13:49.637Z,99.99
2018-06-13T00:13:53.945Z,99.99
2018-06-13T00:13:58.252Z,99.99
2018-06-13T00:14:02.356Z,99.99
2018-06-13T00:14:06.564Z,99.99
2018-06-13T00:14:10.890Z,99.99
2018-06-13T00:14:15.100Z,99.99
2018-06-13T00:14:19.311Z,99.99
2018-06-13T00:14:23.512Z,99.99
2018-06-13T00:14:27.823Z,99.99
2018-06-13T00:14:32.137Z,99.99
2018-06-13T00:14:36.454Z,99.99
2018-06-13T00:14:40.444Z,99.99
2018-06-13T00:14:44.762Z,99.99
2018-06-13T00:14:48.855Z,99.99
2018-06-13T00:14:52.952Z,99.99
2018-06-13T00:14:57.264Z,99.99
2018-06-13T00:15:01.467Z,99.99
2018-06-13T00:15:05.780Z,99.99
2018-06-13T00:15:09.892Z,99.99
2018-06-13T00:15:14.202Z,99.99
2018-06-13T00:15:18.294Z,99.99
2018-06-13T00:15:22.604Z,99.99
2018-06-13T00:15:26.808Z,99.99
2018-06-13T00:15:31.012Z,99.99
2018-06-13T00:15:35.320Z,99.99
2018-06-13T00:15:39.531Z,99.99
2018-06-13T00:15:43.841Z,99.99
2018-06-13T00:15:48.153Z,99.99
2018-06-13T00:15:52.247Z,99.99
2018-06-13T00:15:56.561Z,99.99
2018-06-13T00:16:00.886Z,99.99
2018-06-13T00:16:05.089Z,99.99
2018-06-13T00:16:09.079Z,99.99
2018-06-13T00:16:13.173Z,99.99
2018-06-13T00:16:17.483Z,99.99
2018-06-13T00:16:21.729Z,99.99
2018-06-13T00:16:26.222Z,99.99
2018-06-13T00:16:30.437Z,99.99
2018-06-13T00:16:34.543Z,99.99
2018-06-13T00:16:38.905Z,99.99
2018-06-13T00:16:43.114Z,99.99
2018-06-13T00:16:47.213Z,99.99
2018-06-13T00:16:51.309Z,99.99
2018-06-13T00:16:55.518Z,99.99
2018-06-13T00:16:59.721Z,99.99
2018-06-13T00:17:03.837Z,99.99
2018-06-13T00:17:07.940Z,99.99
2018-06-13T00:17:12.037Z,99.99
2018-06-13T00:17:16.347Z,99.99
2018-06-13T00:17:20.664Z,99.99
2018-06-13T00:17:24.767Z,99.99
2018-06-13T00:17:28.969Z,99.99
2018-06-13T00:17:33.071Z,99.99
2018-06-13T00:17:37.278Z,99.99
2018-06-13T00:17:41.374Z,99.99
2018-06-13T00:17:45.584Z,99.99
2018-06-13T00:17:49.682Z,99.99
2018-06-13T00:17:53.772Z,99.99
2018-06-13T00:17:58.080Z,99.99
2018-06-13T00:18:02.282Z,99.99
2018-06-13T00:18:06.493Z,99.99
2018-06-13T00:18:10.593Z,99.99
2018-06-13T00:18:14.902Z,99.99
2018-06-13T00:18:19.103Z,99.99
2018-06-13T00:18:23.539Z,99.99
2018-06-13T00:18:27.848Z,99.99
2018-06-13T00:18:32.046Z,99.99
2018-06-13T00:18:36.259Z,99.99
2018-06-13T00:18:40.467Z,99.99
2018-06-13T00:18:44.770Z,99.99
2018-06-13T00:18:48.972Z,99.99
2018-06-13T00:18:53.283Z,99.99
2018-06-13T00:18:57.601Z,99.99
2018-06-13T00:19:01.912Z,99.99
2018-06-13T00:19:06.010Z,99.99
2018-06-13T00:19:10.332Z,99.99
2018-06-13T00:19:14.541Z,99.99
2018-06-13T00:19:18.757Z,99.99
2018-06-13T00:19:23.071Z,99.99
2018-06-13T00:19:27.070Z,99.99
2018-06-13T00:19:31.325Z,99.99
2018-06-13T00:19:35.372Z,99.99
2018-06-13T00:19:39.469Z,99.99
2018-06-13T00:19:43.773Z,99.99
2018-06-13T00:19:48.088Z,99.99
2018-06-13T00:19:52.392Z,99.99
2018-06-13T00:19:56.700Z,99.99
2018-06-13T00:20:00.950Z,99.99
2018-06-13T00:20:05.053Z,99.99
2018-06-13T00:20:09.254Z,99.99
2018-06-13T00:20:13.459Z,99.99
2018-06-13T00:20:17.664Z,99.99
2018-06-13T00:20:21.769Z,99.99
2018-06-13T00:20:25.977Z,99.99
2018-06-13T00:20:30.077Z,99.99
2018-06-13T00:20:34.392Z,99.99
2018-06-13T00:20:38.599Z,99.99
2018-06-13T00:20:42.814Z,99.99
2018-06-13T00:20:47.136Z,99.99
2018-06-13T00:20:51.336Z,99.99
2018-06-13T00:20:55.436Z,99.99
2018-06-13T00:20:59.639Z,99.99
2018-06-13T00:21:03.735Z,99.99
2018-06-13T00:21:07.833Z,99.99
2018-06-13T00:21:11.939Z,99.99
2018-06-13T00:21:16.037Z,99.99
2018-06-13T00:21:20.359Z,99.99
2018-06-13T00:21:24.665Z,99.99
2018-06-13T00:21:28.863Z,99.99
2018-06-13T00:21:33.182Z,99.99
2018-06-13T00:21:37.491Z,99.99
2018-06-13T00:21:41.798Z,99.99
2018-06-13T00:21:45.995Z,99.99
2018-06-13T00:21:50.197Z,99.99
2018-06-13T00:21:54.398Z,99.99
2018-06-13T00:21:58.602Z,99.99
2018-06-13T00:22:02.858Z,99.99
2018-06-13T00:22:06.854Z,99.99
2018-06-13T00:22:11.062Z,99.99
2018-06-13T00:22:15.276Z,99.99
2018-06-13T00:22:19.587Z,99.99
2018-06-13T00:22:23.897Z,99.99
2018-06-13T00:22:27.994Z,99.99
2018-06-13T00:22:32.095Z,99.99
2018-06-13T00:22:36.291Z,99.99
2018-06-13T00:22:40.597Z,99.99
2018-06-13T00:22:44.803Z,99.99
2018-06-13T00:22:48.899Z,99.99
2018-06-13T00:22:52.992Z,99.99
2018-06-13T00:22:57.093Z,99.99
2018-06-13T00:23:01.408Z,99.99
2018-06-13T00:23:05.298Z,99.99
2018-06-13T00:23:09.288Z,99.99
2018-06-13T00:23:13.500Z,99.99
2018-06-13T00:23:17.702Z,99.99
2018-06-13T00:23:22.023Z,99.99
2018-06-13T00:23:26.231Z,99.99
2018-06-13T00:23:30.438Z,99.99
2018-06-13T00:23:34.533Z,99.99
2018-06-13T00:23:38.849Z,99.99
2018-06-13T00:23:43.171Z,99.99
2018-06-13T00:23:47.417Z,99.99
2018-06-13T00:23:51.640Z,99.99
2018-06-13T00:23:55.846Z,99.99
2018-06-13T00:23:59.943Z,99.99
2018-06-13T00:24:03.937Z,99.99
2018-06-13T00:24:08.137Z,99.99
2018-06-13T00:24:12.348Z,99.99
2018-06-13T00:24:16.768Z,99.99
2018-06-13T00:24:21.110Z,99.99
2018-06-13T00:24:25.207Z,99.99
2018-06-13T00:24:29.523Z,99.99
2018-06-13T00:24:33.838Z,99.99
2018-06-13T00:24:38.228Z,99.99
2018-06-13T00:24:42.692Z,99.99
2018-06-13T00:24:46.902Z,99.99
2018-06-13T00:24:51.223Z,99.99
2018-06-13T00:24:55.219Z,99.99
2018-06-13T00:24:59.425Z,99.99
2018-06-13T00:25:03.729Z,99.99
2018-06-13T00:25:08.040Z,99.99
2018-06-13T00:25:12.252Z,99.99
2018-06-13T00:25:16.467Z,99.99
2018-06-13T00:25:20.844Z,99.99
2018-06-13T00:25:25.049Z,99.99
2018-06-13T00:25:29.046Z,99.99
2018-06-13T00:25:33.248Z,99.99
2018-06-13T00:25:37.348Z,99.99
2018-06-13T00:25:41.553Z,99.99
2018-06-13T00:25:45.759Z,99.99
2018-06-13T00:25:49.856Z,99.99
2018-06-13T00:25:53.953Z,99.99
2018-06-13T00:25:58.265Z,99.99
2018-06-13T00:26:02.616Z,99.99
2018-06-13T00:26:06.719Z,99.99
2018-06-13T00:26:10.828Z,99.99
2018-06-13T00:26:15.084Z,99.99
2018-06-13T00:26:19.287Z,99.99
2018-06-13T00:26:23.593Z,99.99
2018-06-13T00:26:27.908Z,99.99
2018-06-13T00:26:32.216Z,99.99
2018-06-13T00:26:36.529Z,99.99
2018-06-13T00:26:40.785Z,99.99
2018-06-13T00:26:44.991Z,99.99
2018-06-13T00:26:49.298Z,99.99
2018-06-13T00:26:53.500Z,99.99
2018-06-13T00:26:57.597Z,99.99
2018-06-13T00:27:01.911Z,99.99
2018-06-13T00:27:05.905Z,99.99
2018-06-13T00:27:10.107Z,99.99
2018-06-13T00:27:14.415Z,99.99
2018-06-13T00:27:18.613Z,99.99
2018-06-13T00:27:22.921Z,99.99
2018-06-13T00:27:27.124Z,99.99
2018-06-13T00:27:31.329Z,99.99
2018-06-13T00:27:35.531Z,99.99
2018-06-13T00:27:39.731Z,99.99
2018-06-13T00:27:44.035Z,99.99
2018-06-13T00:27:48.135Z,99.99
2018-06-13T00:27:52.122Z,99.99
2018-06-13T00:27:56.438Z,99.99
2018-06-13T00:28:00.533Z,99.99
2018-06-13T00:28:04.850Z,99.99
2018-06-13T00:28:08.945Z,99.99
2018-06-13T00:28:12.946Z,99.99
2018-06-13T00:28:17.044Z,99.99
2018-06-13T00:28:21.139Z,99.99
2018-06-13T00:28:25.139Z,99.99
2018-06-13T00:28:29.344Z,99.99
2018-06-13T00:28:34.136Z,99.99
2018-06-13T00:28:38.340Z,99.99
2018-06-13T00:28:42.546Z,99.99
2018-06-13T00:28:46.749Z,99.99
2018-06-13T00:28:50.951Z,99.99
2018-06-13T00:28:55.152Z,99.99
2018-06-13T00:28:59.167Z,99.99
2018-06-13T00:29:03.374Z,99.99
2018-06-13T00:29:07.359Z,99.99
2018-06-13T00:29:11.560Z,99.99
2018-06-13T00:29:15.871Z,99.99
2018-06-13T00:29:19.753Z,99.99
2018-06-13T00:29:24.059Z,99.99
2018-06-13T00:29:28.061Z,99.99
2018-06-13T00:29:32.371Z,99.99
2018-06-13T00:29:36.676Z,99.99
2018-06-13T00:29:40.993Z,99.99
2018-06-13T00:29:45.194Z,99.99
2018-06-13T00:29:49.499Z,99.99
2018-06-13T00:29:53.807Z,99.99
2018-06-13T00:29:58.006Z,99.99
2018-06-13T00:30:02.044Z,99.99
2018-06-13T00:30:05.935Z,99.99
2018-06-13T00:30:10.027Z,99.99
2018-06-13T00:30:14.242Z,99.99
2018-06-13T00:30:18.341Z,99.99
2018-06-13T00:30:22.541Z,99.99
2018-06-13T00:30:26.742Z,99.99
2018-06-13T00:30:31.048Z,99.99
2018-06-13T00:30:35.254Z,99.99
2018-06-13T00:30:39.462Z,99.99
2018-06-13T00:30:43.666Z,99.99
2018-06-13T00:30:47.870Z,99.99
2018-06-13T00:30:52.072Z,99.99
2018-06-13T00:30:56.168Z,99.99
2018-06-13T00:31:00.367Z,99.99
2018-06-13T00:31:04.573Z,99.99
2018-06-13T00:31:08.784Z,99.99
2018-06-13T00:31:12.990Z,99.99
2018-06-13T00:31:17.296Z,99.99
2018-06-13T00:31:21.495Z,99.99
2018-06-13T00:31:25.697Z,99.99
2018-06-13T00:31:29.788Z,99.68
2018-06-13T00:31:33.884Z,99.77
2018-06-13T00:31:38.082Z,99.96
2018-06-13T00:31:42.284Z,99.99
2018-06-13T00:31:46.594Z,99.96
2018-06-13T00:31:50.795Z,99.99
2018-06-13T00:31:54.995Z,99.99
2018-06-13T00:31:59.207Z,99.68
2018-06-13T00:32:03.412Z,99.87
2018-06-13T00:32:07.511Z,99.99
2018-06-13T00:32:11.764Z,99.68
2018-06-13T00:32:16.081Z,99.77
2018-06-13T00:32:20.183Z,99.99
2018-06-13T00:32:24.488Z,99.68
2018-06-13T00:32:28.956Z,99.87
2018-06-13T00:32:33.261Z,99.68
2018-06-13T00:32:37.548Z,99.87
2018-06-13T00:32:41.774Z,99.96
2018-06-13T00:32:46.087Z,99.77
2018-06-13T00:32:50.185Z,99.58
2018-06-13T00:32:54.387Z,99.68
2018-06-13T00:32:58.491Z,99.48
2018-06-13T00:33:02.492Z,99.48
2018-06-13T00:33:06.798Z,99.19
2018-06-13T00:33:10.970Z,99.58
2018-06-13T00:33:15.336Z,99.58
2018-06-13T00:33:19.649Z,99.48
2018-06-13T00:33:23.959Z,99.68
2018-06-13T00:33:28.272Z,99.68
2018-06-13T00:33:32.467Z,99.48
2018-06-13T00:33:36.559Z,99.77
2018-06-13T00:33:40.871Z,99.48
2018-06-13T00:33:45.196Z,99.87
2018-06-13T00:33:49.509Z,99.99
2018-06-13T00:33:53.725Z,99.96
2018-06-13T00:33:57.929Z,99.96
2018-06-13T00:34:02.130Z,99.29
2018-06-13T00:34:06.225Z,99.99
2018-06-13T00:34:10.444Z,99.29
2018-06-13T00:34:14.546Z,99.19
2018-06-13T00:34:18.644Z,99.39
2018-06-13T00:34:22.849Z,99.48
2018-06-13T00:34:26.945Z,99.19
2018-06-13T00:34:31.042Z,99.39
2018-06-13T00:34:35.348Z,99.39
2018-06-13T00:34:39.863Z,99.87
2018-06-13T00:34:44.222Z,99.19
2018-06-13T00:34:48.210Z,99.19
2018-06-13T00:34:52.408Z,99.19
2018-06-13T00:34:56.722Z,99.19
2018-06-13T00:35:00.930Z,99.39
2018-06-13T00:35:05.024Z,99.19
2018-06-13T00:35:09.226Z,99.1
2018-06-13T00:35:13.221Z,99.29
2018-06-13T00:35:17.531Z,99.19
2018-06-13T00:35:21.736Z,99.19
2018-06-13T00:35:25.938Z,99.1
2018-06-13T00:35:30.148Z,99.39
2018-06-13T00:35:34.351Z,99.1
2018-06-13T00:35:38.551Z,98.91
2018-06-13T00:35:42.750Z,99.19
2018-06-13T00:35:47.064Z,98.91
2018-06-13T00:35:51.263Z,99.01
2018-06-13T00:35:55.573Z,99.19
2018-06-13T00:35:59.668Z,99.1
2018-06-13T00:36:03.981Z,99.19
2018-06-13T00:36:08.245Z,99.01
2018-06-13T00:36:12.251Z,99.29
2018-06-13T00:36:16.555Z,99.19
2018-06-13T00:36:20.760Z,98.81
2018-06-13T00:36:24.960Z,99.1
2018-06-13T00:36:29.284Z,98.62
2018-06-13T00:36:33.596Z,99.19
2018-06-13T00:36:37.799Z,99.1
2018-06-13T00:36:41.989Z,99.29
2018-06-13T00:36:46.540Z,99.01
2018-06-13T00:36:51.084Z,99.01
2018-06-13T00:36:55.786Z,99.48
2018-06-13T00:37:00.213Z,98.81
2018-06-13T00:37:04.435Z,98.62
2018-06-13T00:37:09.165Z,98.43
2018-06-13T00:37:13.573Z,98.72
2018-06-13T00:37:17.964Z,98.62
2018-06-13T00:37:22.177Z,99.01
2018-06-13T00:37:26.269Z,98.43
2018-06-13T00:37:30.630Z,98.24
2018-06-13T00:37:34.850Z,98.62
2018-06-13T00:37:38.951Z,98.33
2018-06-13T00:37:43.046Z,98.91
2018-06-13T00:37:47.361Z,98.14
2018-06-13T00:37:51.354Z,98.62
2018-06-13T00:37:55.558Z,98.52
2018-06-13T00:37:59.553Z,98.62
2018-06-13T00:38:03.908Z,98.52
2018-06-13T00:38:08.218Z,98.81
2018-06-13T00:38:12.096Z,98.62
2018-06-13T00:38:16.315Z,97.95
2018-06-13T00:38:20.518Z,98.81
2018-06-13T00:38:24.723Z,97.95
2018-06-13T00:38:28.822Z,98.14
2018-06-13T00:38:33.133Z,98.05
2018-06-13T00:38:37.439Z,98.05
2018-06-13T00:38:41.644Z,97.95
2018-06-13T00:38:45.949Z,98.05
2018-06-13T00:38:50.153Z,98.14
2018-06-13T00:38:54.356Z,98.62
2018-06-13T00:38:58.573Z,98.43
2018-06-13T00:39:02.783Z,98.33
2018-06-13T00:39:06.663Z,98.52
2018-06-13T00:39:10.875Z,98.33
2018-06-13T00:39:15.079Z,98.24
2018-06-13T00:39:19.287Z,98.43
2018-06-13T00:39:23.597Z,98.43
2018-06-13T00:39:27.480Z,97.95
2018-06-13T00:39:31.578Z,98.43
2018-06-13T00:39:35.786Z,97.95
2018-06-13T00:39:39.887Z,98.14
2018-06-13T00:39:44.095Z,98.14
2018-06-13T00:39:48.297Z,97.95
2018-06-13T00:39:52.390Z,97.85
2018-06-13T00:39:56.605Z,97.85
2018-06-13T00:40:00.914Z,97.85
2018-06-13T00:40:05.124Z,98.33
2018-06-13T00:40:09.005Z,98.05
2018-06-13T00:40:13.397Z,98.24
2018-06-13T00:40:17.485Z,98.33
2018-06-13T00:40:21.668Z,98.33
2018-06-13T00:40:25.853Z,98.05
2018-06-13T00:40:30.156Z,98.24
2018-06-13T00:40:34.345Z,98.05
2018-06-13T00:40:38.540Z,98.05
2018-06-13T00:40:42.745Z,98.33
2018-06-13T00:40:46.844Z,98.24
2018-06-13T00:40:51.157Z,98.33
2018-06-13T00:40:55.252Z,98.05
2018-06-13T00:40:59.571Z,98.24
2018-06-13T00:41:03.561Z,98.24
2018-06-13T00:41:07.450Z,98.14
2018-06-13T00:41:11.713Z,98.14
2018-06-13T00:41:15.926Z,98.05
2018-06-13T00:41:20.129Z,98.14
2018-06-13T00:41:24.337Z,98.05
2018-06-13T00:41:28.330Z,98.14
2018-06-13T00:41:32.534Z,97.56
2018-06-13T00:41:36.736Z,97.56
2018-06-13T00:41:41.046Z,97.76
2018-06-13T00:41:45.146Z,97.66
2018-06-13T00:41:49.348Z,97.66
2018-06-13T00:41:53.551Z,97.85
2018-06-13T00:41:57.756Z,97.47
2018-06-13T00:42:01.858Z,97.09
2018-06-13T00:42:06.096Z,97.18
2018-06-13T00:42:10.422Z,97.38
2018-06-13T00:42:14.644Z,97.28
2018-06-13T00:42:18.737Z,97.28
2018-06-13T00:42:22.937Z,97.47
2018-06-13T00:42:27.254Z,97.38
2018-06-13T00:42:31.456Z,97.28
2018-06-13T00:42:35.665Z,97.47
2018-06-13T00:42:39.869Z,97.28
2018-06-13T00:42:44.079Z,97.47
2018-06-13T00:42:48.175Z,97.56
2018-06-13T00:42:52.371Z,97.56
2018-06-13T00:42:56.466Z,97.47
2018-06-13T00:43:00.666Z,97.28
2018-06-13T00:43:04.661Z,97.38
2018-06-13T00:43:08.760Z,97.28
2018-06-13T00:43:12.961Z,97.38
2018-06-13T00:43:17.162Z,97.28
2018-06-13T00:43:21.376Z,97.47
2018-06-13T00:43:25.580Z,97.47
2018-06-13T00:43:29.899Z,97.47
2018-06-13T00:43:34.114Z,97.47
2018-06-13T00:43:38.328Z,97.66
2018-06-13T00:43:42.641Z,97.56
2018-06-13T00:43:46.850Z,97.47
2018-06-13T00:43:51.047Z,97.56
2018-06-13T00:43:55.143Z,97.28
2018-06-13T00:43:59.243Z,97.47
2018-06-13T00:44:03.497Z,97.47
2018-06-13T00:44:07.825Z,97.47
2018-06-13T00:44:12.145Z,97.76
2018-06-13T00:44:16.356Z,97.28
2018-06-13T00:44:20.664Z,97.56
2018-06-13T00:44:24.655Z,97.47
2018-06-13T00:44:28.867Z,97.56
2018-06-13T00:44:33.194Z,97.28
2018-06-13T00:44:37.400Z,97.66
2018-06-13T00:44:41.717Z,97.56
2018-06-13T00:44:46.028Z,97.38
2018-06-13T00:44:50.230Z,97.56
2018-06-13T00:44:54.326Z,97.56
2018-06-13T00:44:58.423Z,97.28
2018-06-13T00:45:02.624Z,97.47
2018-06-13T00:45:06.504Z,97.47
2018-06-13T00:45:10.604Z,97.56
2018-06-13T00:45:14.950Z,97.38
2018-06-13T00:45:19.048Z,97.47
2018-06-13T00:45:23.246Z,97.47
2018-06-13T00:45:27.556Z,97.18
2018-06-13T00:45:31.769Z,97.47
2018-06-13T00:45:35.867Z,97.47
2018-06-13T00:45:40.075Z,97.28
2018-06-13T00:45:44.282Z,97.38
2018-06-13T00:45:48.487Z,97.56
2018-06-13T00:45:52.691Z,97.38
2018-06-13T00:45:56.785Z,97.47
2018-06-13T00:46:00.990Z,97.28
2018-06-13T00:46:05.134Z,97.28
2018-06-13T00:46:09.122Z,97.47
2018-06-13T00:46:13.269Z,97.38
2018-06-13T00:46:17.481Z,97.47
2018-06-13T00:46:21.992Z,97.28
2018-06-13T00:46:26.401Z,97.66
2018-06-13T00:46:30.601Z,97.56
2018-06-13T00:46:34.826Z,97.47
2018-06-13T00:46:39.027Z,97.18
2018-06-13T00:46:43.334Z,97.38
2018-06-13T00:46:47.548Z,97.56
2018-06-13T00:46:51.754Z,97.18
2018-06-13T00:46:55.952Z,97.18
2018-06-13T00:47:00.158Z,97.18
2018-06-13T00:47:04.334Z,97.47
2018-06-13T00:47:08.489Z,97.18
2018-06-13T00:47:12.690Z,97.56
2018-06-13T00:47:16.786Z,97.76
2018-06-13T00:47:21.097Z,97.85
2018-06-13T00:47:25.300Z,97.85
2018-06-13T00:47:29.604Z,97.76
2018-06-13T00:47:33.911Z,97.76
2018-06-13T00:47:38.230Z,97.76
2018-06-13T00:47:42.539Z,98.24
2018-06-13T00:47:46.851Z,98.14
2018-06-13T00:47:50.959Z,97.56
2018-06-13T00:47:55.159Z,97.66
2018-06-13T00:47:59.259Z,97.76
2018-06-13T00:48:03.666Z,97.66
2018-06-13T00:48:07.759Z,97.56
2018-06-13T00:48:11.750Z,97.56
2018-06-13T00:48:15.839Z,98.14
2018-06-13T00:48:20.146Z,98.14
2018-06-13T00:48:24.345Z,97.76
2018-06-13T00:48:28.552Z,97.76
2018-06-13T00:48:32.869Z,97.56
2018-06-13T00:48:37.071Z,97.76
2018-06-13T00:48:41.380Z,98.14
2018-06-13T00:48:45.693Z,97.76
2018-06-13T00:48:50.006Z,97.66
2018-06-13T00:48:54.209Z,97.95
2018-06-13T00:48:58.517Z,97.56
2018-06-13T00:49:02.829Z,97.95
2018-06-13T00:49:07.035Z,97.95
2018-06-13T00:49:11.242Z,97.95
2018-06-13T00:49:15.562Z,97.66
2018-06-13T00:49:19.871Z,97.18
2018-06-13T00:49:24.073Z,97.09
2018-06-13T00:49:28.271Z,97.09
2018-06-13T00:49:32.466Z,97.38
2018-06-13T00:49:36.771Z,97.18
2018-06-13T00:49:40.987Z,97.66
2018-06-13T00:49:45.090Z,97.38
2018-06-13T00:49:49.292Z,97.18
2018-06-13T00:49:53.495Z,97.47
2018-06-13T00:49:57.802Z,97.47
2018-06-13T00:50:02.113Z,97.56
2018-06-13T00:50:06.211Z,97.28
2018-06-13T00:50:10.313Z,97.38
2018-06-13T00:50:14.517Z,97.38
2018-06-13T00:50:18.729Z,97.47
2018-06-13T00:50:23.036Z,97.28
2018-06-13T00:50:27.408Z,97.47
2018-06-13T00:50:31.666Z,97.66
2018-06-13T00:50:36.232Z,97.28
2018-06-13T00:50:40.422Z,97.28
2018-06-13T00:50:44.517Z,97.38
2018-06-13T00:50:48.616Z,97.47
2018-06-13T00:50:52.819Z,97.38
2018-06-13T00:50:56.924Z,97.28
2018-06-13T00:51:01.018Z,97.47
2018-06-13T00:51:05.180Z,97.56
2018-06-13T00:51:09.169Z,97.56
2018-06-13T00:51:13.373Z,97.56
2018-06-13T00:51:17.683Z,97.56
2018-06-13T00:51:21.885Z,97.56
2018-06-13T00:51:26.087Z,97.56
2018-06-13T00:51:30.399Z,97.56
2018-06-13T00:51:34.599Z,97.66
2018-06-13T00:51:38.809Z,97.47
2018-06-13T00:51:43.119Z,97.66
2018-06-13T00:51:47.332Z,97.56
2018-06-13T00:51:51.532Z,97.38
2018-06-13T00:51:55.731Z,97.56
2018-06-13T00:52:00.047Z,97.66
2018-06-13T00:52:04.151Z,97.38
2018-06-13T00:52:08.252Z,97.56
2018-06-13T00:52:12.448Z,97.56
2018-06-13T00:52:16.542Z,97.56
2018-06-13T00:52:20.848Z,97.28
2018-06-13T00:52:25.046Z,97.56
2018-06-13T00:52:29.242Z,97.18
2018-06-13T00:52:33.448Z,97.56
2018-06-13T00:52:37.655Z,97.56
2018-06-13T00:52:41.966Z,97.56
2018-06-13T00:52:46.164Z,97.56
2018-06-13T00:52:50.271Z,97.56
2018-06-13T00:52:54.524Z,97.38
2018-06-13T00:52:58.614Z,97.56
2018-06-13T00:53:02.821Z,97.47
2018-06-13T00:53:07.029Z,97.56
2018-06-13T00:53:11.014Z,97.56
2018-06-13T00:53:15.017Z,97.47
2018-06-13T00:53:19.005Z,97.66
2018-06-13T00:53:23.097Z,97.38
2018-06-13T00:53:27.327Z,97.85
2018-06-13T00:53:31.633Z,97.18
2018-06-13T00:53:35.950Z,97.56
2018-06-13T00:53:40.052Z,97.66
2018-06-13T00:53:44.362Z,97.66
2018-06-13T00:53:48.669Z,96.66
2018-06-13T00:53:52.868Z,96.99
2018-06-13T00:53:57.079Z,96.99
2018-06-13T00:54:01.282Z,97.18
2018-06-13T00:54:05.488Z,96.7
2018-06-13T00:54:09.691Z,96.89